Terminal Aerodrome Forecast
Issued by NWS Cleveland, OH

Home | Current Version | Previous Version | Text Only | Print | Product List | Glossary On
Versions: 1 2 3 4 5 6 7 8 9 10 11 12 13 14 15 16 17 18
999
FTUS41 KCLE 182155 AAB
TAFCAK
TAF AMD
KCAK 182155Z 1822/1918 24011KT 5SM BR VCSH BKN012 OVC030
      TEMPO 1822/1902 SCT012 OVC040
     FM191500 24015G25KT P6SM SCT007 OVC025=

USA.gov is the U.S. government's official web portal to all federal, state and local government web resources and services.